Time;durP1;ratioP1;P1;durP2;ratioP2;P2;SDS_P1;SDS_P2;PMS_P1;PMS_P2;Temp;Humidity;BMP_temperature;BMP_pressure;BME280_temperature;BME280_humidity;BME280_pressure;Samples;Min_cycle;Max_cycle;Signal;HPM_P1;HPM_P2
2022/09/15 00:00:42;;;;;;;13.60;12.90;;;;;;;18.43;100.00;99831.25;5052817;28;20060;-70
2022/09/15 00:03:07;;;;;;;13.20;12.60;;;;;;;18.39;100.00;99822.06;5049272;28;20029;-70
2022/09/15 00:05:33;;;;;;;13.60;12.90;;;;;;;18.33;100.00;99816.84;5044809;28;20032;-70
2022/09/15 00:07:58;;;;;;;13.85;13.15;;;;;;;18.27;100.00;99813.25;5050554;28;20100;-70
2022/09/15 00:10:27;;;;;;;12.88;12.27;;;;;;;18.22;100.00;99807.81;5051886;28;20028;-70
2022/09/15 00:12:53;;;;;;;13.88;13.18;;;;;;;18.11;100.00;99803.31;5047156;28;20117;-70
2022/09/15 00:15:18;;;;;;;13.20;12.60;;;;;;;18.00;100.00;99790.78;5044139;28;20555;-70
2022/09/15 00:17:48;;;;;;;14.27;13.48;;;;;;;18.00;100.00;99794.28;5052144;28;20079;-70
2022/09/15 00:20:15;;;;;;;13.68;12.98;;;;;;;18.01;100.00;99789.72;5049356;28;20036;-70
2022/09/15 00:22:40;;;;;;;14.25;13.55;;;;;;;17.75;100.00;99788.44;5050064;28;20550;-70
2022/09/15 00:25:06;;;;;;;14.20;13.40;;;;;;;17.82;100.00;99781.88;5051341;28;20092;-70
2022/09/15 00:27:32;;;;;;;13.73;13.02;;;;;;;17.82;100.00;99784.56;5051356;28;20365;-70
2022/09/15 00:29:58;;;;;;;13.65;12.95;;;;;;;17.95;100.00;99784.25;5051114;28;20037;-70
2022/09/15 00:32:24;;;;;;;13.93;13.23;;;;;;;17.79;100.00;99792.28;5051340;28;20517;-70
2022/09/15 00:34:50;;;;;;;14.60;13.80;;;;;;;17.81;100.00;99801.72;5050733;28;20037;-70
2022/09/15 00:37:16;;;;;;;13.90;13.20;;;;;;;17.88;100.00;99812.31;5037296;28;20531;-70
2022/09/15 00:39:41;;;;;;;13.82;13.13;;;;;;;17.88;100.00;99813.13;5052164;28;20021;-70
2022/09/15 00:42:14;;;;;;;14.30;13.50;;;;;;;18.12;100.00;99800.38;5043527;28;20063;-68
2022/09/15 00:45:01;;;;;;;13.48;12.77;;;;;;;17.92;100.00;99800.84;5050431;28;20069;-68
2022/09/15 00:47:33;;;;;;;13.38;12.70;;;;;;;18.08;100.00;99796.56;5055027;28;20092;-70
2022/09/15 00:50:08;;;;;;;13.23;12.63;;;;;;;18.18;100.00;99787.88;5055354;28;20024;-70
2022/09/15 00:52:51;;;;;;;13.38;12.68;;;;;;;17.85;100.00;99775.22;5045430;28;20045;-69
2022/09/15 00:55:19;;;;;;;13.73;13.02;;;;;;;17.83;100.00;99770.09;5055092;28;20078;-70
2022/09/15 00:57:51;;;;;;;13.50;12.80;;;;;;;17.54;100.00;99771.09;5055354;28;20388;-69
2022/09/15 01:00:20;;;;;;;13.63;12.93;;;;;;;17.50;100.00;99764.59;5054447;28;20113;-69
2022/09/15 01:02:47;;;;;;;13.95;13.25;;;;;;;17.51;100.00;99759.00;5047486;28;20040;-69
2022/09/15 01:05:18;;;;;;;13.80;13.10;;;;;;;17.51;100.00;99758.19;5048110;28;20520;-69
2022/09/15 01:08:00;;;;;;;13.80;13.10;;;;;;;17.56;100.00;99758.28;5053604;28;20029;-69
2022/09/15 01:10:32;;;;;;;13.75;13.05;;;;;;;17.50;100.00;99749.31;5041158;28;20037;-70
2022/09/15 01:13:06;;;;;;;14.18;13.48;;;;;;;17.57;100.00;99751.88;5053613;28;20037;-69
2022/09/15 01:15:56;;;;;;;13.73;13.02;;;;;;;17.34;100.00;99753.59;5054900;28;20033;-68
2022/09/15 01:18:54;;;;;;;14.38;13.65;;;;;;;17.36;100.00;99761.38;5054833;28;20017;-69
2022/09/15 01:21:30;;;;;;;13.60;12.90;;;;;;;17.29;100.00;99760.69;5022709;28;20504;-70
2022/09/15 01:24:33;;;;;;;13.90;13.20;;;;;;;17.12;100.00;99752.59;5043909;28;20439;-69
2022/09/15 01:27:27;;;;;;;13.82;13.13;;;;;;;17.11;100.00;99742.91;5053429;28;20025;-70
2022/09/15 01:30:15;;;;;;;13.73;13.02;;;;;;;17.09;100.00;99726.25;5054458;28;20102;-68
2022/09/15 01:33:05;;;;;;;14.10;13.40;;;;;;;17.18;100.00;99715.97;5034666;28;20033;-69
2022/09/15 01:36:00;;;;;;;13.77;13.07;;;;;;;16.97;100.00;99702.19;5050913;28;20496;-70
2022/09/15 01:38:36;;;;;;;14.02;13.32;;;;;;;16.93;100.00;99700.19;5052576;28;20036;-70
2022/09/15 01:41:24;;;;;;;13.73;13.02;;;;;;;16.97;100.00;99701.38;5052708;28;20086;-70
2022/09/15 01:44:00;;;;;;;13.82;13.13;;;;;;;17.05;100.00;99709.03;5052933;28;20031;-69
2022/09/15 01:46:31;;;;;;;14.13;13.43;;;;;;;17.04;100.00;99712.72;5054356;28;20028;-70
2022/09/15 01:48:59;;;;;;;14.23;13.52;;;;;;;17.42;100.00;99719.41;5052819;28;20025;-70
2022/09/15 01:51:27;;;;;;;14.10;13.40;;;;;;;17.58;100.00;99713.25;5054190;28;20037;-70
2022/09/15 01:53:53;;;;;;;13.77;13.07;;;;;;;17.70;100.00;99708.66;5039742;28;20029;-70
2022/09/15 01:56:19;;;;;;;13.63;12.93;;;;;;;17.38;100.00;99698.41;5053903;28;20021;-70
2022/09/15 01:58:48;;;;;;;13.80;13.10;;;;;;;17.04;100.00;99704.69;5052020;28;20029;-71
2022/09/15 02:01:22;;;;;;;14.20;13.45;;;;;;;17.10;100.00;99707.25;5051495;28;20534;-71
2022/09/15 02:03:55;;;;;;;13.60;12.90;;;;;;;17.20;100.00;99712.00;5054118;28;20056;-70
2022/09/15 02:06:34;;;;;;;13.80;13.10;;;;;;;17.50;100.00;99710.97;5044599;28;20025;-70
2022/09/15 02:09:26;;;;;;;13.55;12.85;;;;;;;17.28;100.00;99698.22;5052008;28;20025;-70
2022/09/15 02:12:01;;;;;;;14.00;13.30;;;;;;;17.08;100.00;99685.25;5053461;28;20521;-70
2022/09/15 02:14:46;;;;;;;14.43;13.63;;;;;;;17.25;100.00;99679.94;5053140;28;20499;-68
2022/09/15 02:17:16;;;;;;;13.88;13.18;;;;;;;17.16;100.00;99678.69;5050252;28;20033;-71
2022/09/15 02:19:48;;;;;;;14.10;13.35;;;;;;;17.21;100.00;99673.44;5054667;28;20488;-69
2022/09/15 02:22:28;;;;;;;13.95;13.25;;;;;;;17.07;100.00;99685.47;5053377;28;20029;-69
2022/09/15 02:25:15;;;;;;;14.10;13.40;;;;;;;17.22;100.00;99674.25;5053729;28;20039;-70
2022/09/15 02:27:48;;;;;;;14.13;13.40;;;;;;;17.47;100.00;99684.63;5053390;28;20037;-68
2022/09/15 02:30:16;;;;;;;14.35;13.55;;;;;;;17.54;100.00;99685.28;5052046;28;20029;-69
2022/09/15 02:32:54;;;;;;;13.50;12.80;;;;;;;17.21;100.00;99683.34;5053378;28;20488;-69
2022/09/15 02:35:23;;;;;;;13.43;12.73;;;;;;;17.05;100.00;99687.59;5052371;28;20516;-70
2022/09/15 02:37:50;;;;;;;14.07;13.27;;;;;;;17.26;100.00;99692.31;5048188;28;20407;-70
2022/09/15 02:40:16;;;;;;;13.60;12.90;;;;;;;17.49;100.00;99690.59;5051977;28;20472;-70
2022/09/15 02:42:57;;;;;;;14.20;13.40;;;;;;;17.21;100.00;99676.13;5053844;28;20029;-71
2022/09/15 02:45:23;;;;;;;13.45;12.75;;;;;;;17.03;100.00;99666.38;5051866;28;20052;-70
2022/09/15 02:47:49;;;;;;;14.02;13.30;;;;;;;17.24;100.00;99670.25;5051480;28;20400;-68
2022/09/15 02:50:18;;;;;;;13.68;12.98;;;;;;;17.12;100.00;99653.44;5053016;28;20028;-69
2022/09/15 02:52:45;;;;;;;13.25;12.60;;;;;;;16.98;100.00;99646.72;5051941;28;20114;-69
2022/09/15 02:55:11;;;;;;;13.07;12.48;;;;;;;16.74;100.00;99646.75;5051581;28;20520;-68
2022/09/15 02:57:36;;;;;;;13.73;13.02;;;;;;;16.55;100.00;99648.75;5052689;28;20116;-68
2022/09/15 03:00:14;;;;;;;13.05;12.45;;;;;;;16.73;100.00;99644.31;5051548;28;20059;-69
2022/09/15 03:02:51;;;;;;;13.70;13.00;;;;;;;16.78;100.00;99639.09;5051651;28;20044;-69
2022/09/15 03:05:19;;;;;;;13.65;12.95;;;;;;;16.58;100.00;99639.44;5052818;28;20025;-69
2022/09/15 03:07:44;;;;;;;13.95;13.23;;;;;;;16.58;100.00;99648.28;5052077;28;20034;-69
2022/09/15 03:10:12;;;;;;;13.77;13.07;;;;;;;16.70;100.00;99642.94;5051897;28;20189;-70
2022/09/15 03:12:42;;;;;;;13.77;13.07;;;;;;;16.74;100.00;99644.09;5052479;28;20078;-70
2022/09/15 03:15:10;;;;;;;13.70;13.00;;;;;;;16.62;100.00;99647.81;5052286;28;20670;-69
2022/09/15 03:17:37;;;;;;;13.90;13.20;;;;;;;16.67;100.00;99640.72;5041857;28;20496;-69
2022/09/15 03:20:06;;;;;;;13.70;13.00;;;;;;;16.83;100.00;99661.44;5051227;28;20530;-69
2022/09/15 03:22:32;;;;;;;13.77;13.07;;;;;;;16.59;100.00;99647.22;5051095;28;20440;-70
2022/09/15 03:24:57;;;;;;;13.90;13.20;;;;;;;16.35;100.00;99642.97;5050613;28;20033;-69
2022/09/15 03:27:23;;;;;;;13.85;13.15;;;;;;;16.43;100.00;99634.56;5050946;28;20459;-69
2022/09/15 03:29:49;;;;;;;14.10;13.40;;;;;;;16.79;100.00;99644.19;5050847;28;20024;-69
2022/09/15 03:32:14;;;;;;;13.52;12.82;;;;;;;16.32;100.00;99650.66;5050679;28;20090;-69
2022/09/15 03:34:40;;;;;;;14.43;13.63;;;;;;;16.28;100.00;99645.75;5047481;28;20035;-69
2022/09/15 03:37:05;;;;;;;14.02;13.32;;;;;;;16.48;100.00;99644.59;5051866;28;20036;-70
2022/09/15 03:39:31;;;;;;;14.43;13.65;;;;;;;16.07;100.00;99632.13;5047997;28;20388;-69
2022/09/15 03:41:57;;;;;;;15.13;14.23;;;;;;;16.24;100.00;99636.56;5051398;28;20060;-70
2022/09/15 03:44:22;;;;;;;14.25;13.55;;;;;;;16.37;100.00;99615.94;5034849;28;20077;-69
2022/09/15 03:46:48;;;;;;;14.95;14.15;;;;;;;16.37;100.00;99618.63;5050599;28;20051;-69
2022/09/15 03:49:14;;;;;;;15.13;14.27;;;;;;;16.42;100.00;99624.09;5051702;28;20039;-69
2022/09/15 03:51:40;;;;;;;14.20;13.43;;;;;;;15.99;100.00;99646.66;5045877;28;20020;-69
2022/09/15 03:54:07;;;;;;;14.55;13.75;;;;;;;16.49;100.00;99635.50;5051765;28;20025;-70
2022/09/15 03:56:32;;;;;;;14.30;13.55;;;;;;;16.94;100.00;99641.00;5051645;28;20054;-69
2022/09/15 03:59:00;;;;;;;13.70;13.00;;;;;;;16.56;100.00;99636.19;5050861;28;20032;-70
2022/09/15 04:01:26;;;;;;;14.77;13.98;;;;;;;16.62;100.00;99639.78;5051536;28;20029;-70
2022/09/15 04:03:52;;;;;;;15.63;14.73;;;;;;;16.44;100.00;99641.53;5049860;28;20070;-70
2022/09/15 04:06:20;;;;;;;14.10;13.40;;;;;;;16.43;100.00;99642.59;5044667;28;20025;-69
2022/09/15 04:08:46;;;;;;;14.50;13.73;;;;;;;16.05;100.00;99629.69;5051566;28;20388;-71
2022/09/15 04:11:12;;;;;;;14.93;14.13;;;;;;;16.22;100.00;99641.31;5051518;28;20025;-70
2022/09/15 04:13:40;;;;;;;14.43;13.68;;;;;;;16.47;100.00;99641.09;5049735;28;20579;-68
2022/09/15 04:16:10;;;;;;;14.50;13.70;;;;;;;16.30;100.00;99645.50;5050484;28;20122;-69
2022/09/15 04:18:36;;;;;;;14.75;13.95;;;;;;;16.27;100.00;99646.00;5051538;28;20117;-69
2022/09/15 04:21:05;;;;;;;14.23;13.45;;;;;;;16.30;100.00;99638.31;5051396;28;20056;-71
2022/09/15 04:23:31;;;;;;;14.13;13.43;;;;;;;16.46;100.00;99627.94;5047599;28;20037;-70
2022/09/15 04:26:02;;;;;;;14.48;13.68;;;;;;;16.25;100.00;99627.50;5046987;28;20034;-70
2022/09/15 04:28:31;;;;;;;15.23;14.32;;;;;;;16.74;100.00;99638.72;5038653;28;20436;-71
2022/09/15 04:31:05;;;;;;;14.75;13.95;;;;;;;16.61;100.00;99627.47;5044859;28;20021;-70
2022/09/15 04:33:32;;;;;;;14.05;13.32;;;;;;;17.03;100.00;99628.03;5048957;28;20404;-69
2022/09/15 04:36:03;;;;;;;14.50;13.70;;;;;;;16.88;100.00;99633.09;5040313;28;20223;-71
2022/09/15 04:38:30;;;;;;;14.27;13.52;;;;;;;16.83;100.00;99626.63;5042239;28;20583;-71
2022/09/15 04:40:56;;;;;;;14.02;13.32;;;;;;;17.09;100.00;99622.53;5039633;28;20230;-69
2022/09/15 04:43:22;;;;;;;14.35;13.55;;;;;;;17.44;100.00;99626.13;5051108;28;20122;-70
2022/09/15 04:45:48;;;;;;;14.57;13.77;;;;;;;17.24;100.00;99621.22;5050462;28;20049;-70
2022/09/15 04:48:13;;;;;;;14.95;14.05;;;;;;;17.39;100.00;99622.28;5040471;28;20041;-70
2022/09/15 04:50:39;;;;;;;14.43;13.63;;;;;;;17.17;100.00;99615.19;5046379;28;20521;-70
2022/09/15 04:53:06;;;;;;;14.05;13.25;;;;;;;17.38;100.00;99617.19;5049788;28;20021;-70
2022/09/15 04:55:33;;;;;;;14.93;14.02;;;;;;;17.73;100.00;99600.09;5049593;28;20511;-70
2022/09/15 04:58:01;;;;;;;14.52;13.73;;;;;;;17.97;100.00;99606.09;5036844;28;20086;-70
2022/09/15 05:00:30;;;;;;;14.77;13.93;;;;;;;18.14;100.00;99610.41;5077567;28;20167;-69
2022/09/15 05:02:57;;;;;;;15.10;14.20;;;;;;;18.08;100.00;99611.38;5049686;28;20019;-72
2022/09/15 05:05:24;;;;;;;14.45;13.65;;;;;;;17.44;100.00;99616.22;5056205;28;20035;-71
2022/09/15 05:07:49;;;;;;;15.40;14.48;;;;;;;16.84;100.00;99616.72;5046251;28;20029;-72
2022/09/15 05:10:15;;;;;;;14.10;13.32;;;;;;;17.16;100.00;99614.38;5057399;28;20064;-71
2022/09/15 05:12:40;;;;;;;14.70;13.90;;;;;;;17.93;100.00;99611.97;5056063;28;20067;-73
2022/09/15 05:15:07;;;;;;;14.45;13.65;;;;;;;18.34;100.00;99592.94;5048262;28;20040;-73
2022/09/15 05:17:33;;;;;;;14.50;13.70;;;;;;;18.81;100.00;99595.97;5058379;28;20108;-71
2022/09/15 05:19:59;;;;;;;14.75;13.95;;;;;;;19.13;100.00;99592.56;5053399;28;20100;-72
2022/09/15 05:22:25;;;;;;;15.13;14.23;;;;;;;20.94;100.00;99583.28;5056938;28;20045;-72
2022/09/15 05:24:51;;;;;;;14.13;13.32;;;;;;;21.08;100.00;99574.66;5055184;28;20040;-71
2022/09/15 05:27:17;;;;;;;14.98;14.07;;;;;;;20.43;100.00;99560.72;5054435;28;20017;-73
2022/09/15 05:29:42;;;;;;;16.02;15.02;;;;;;;21.58;100.00;99551.53;5052048;28;20072;-73
2022/09/15 05:32:08;;;;;;;13.75;13.05;;;;;;;19.71;100.00;99554.09;5049386;28;20053;-72
2022/09/15 05:34:34;;;;;;;13.48;12.77;;;;;;;20.48;100.00;99555.34;5062409;28;20036;-72
2022/09/15 05:37:00;;;;;;;13.77;13.07;;;;;;;20.82;100.00;99557.63;5055215;28;20026;-71
2022/09/15 05:39:27;;;;;;;13.57;12.88;;;;;;;19.79;100.00;99564.38;5050240;28;20108;-72
2022/09/15 05:41:52;;;;;;;14.82;14.02;;;;;;;20.38;100.00;99563.38;5051664;28;20024;-73
2022/09/15 05:44:20;;;;;;;13.68;12.98;;;;;;;20.19;100.00;99565.69;5048693;28;20048;-71
2022/09/15 05:46:46;;;;;;;13.98;13.25;;;;;;;20.29;100.00;99562.25;5052831;28;20479;-72
2022/09/15 05:49:12;;;;;;;13.40;12.70;;;;;;;21.30;100.00;99551.00;5057863;28;20047;-72
2022/09/15 05:51:38;;;;;;;13.80;13.10;;;;;;;21.16;100.00;99539.91;5053661;28;20033;-73
2022/09/15 05:54:04;;;;;;;14.07;13.35;;;;;;;22.58;100.00;99538.88;5056364;28;20025;-72
2022/09/15 05:56:30;;;;;;;14.43;13.63;;;;;;;24.09;100.00;99531.78;5051559;28;20159;-72
2022/09/15 05:58:56;;;;;;;13.88;13.18;;;;;;;25.38;100.00;99532.50;5060915;28;20115;-72
2022/09/15 06:01:26;;;;;;;13.80;13.10;;;;;;;24.11;100.00;99543.16;5053027;28;20361;-72
2022/09/15 06:03:53;;;;;;;13.60;12.90;;;;;;;23.61;100.00;99536.34;5059403;28;20040;-73
2022/09/15 06:06:23;;;;;;;13.75;13.05;;;;;;;22.77;100.00;99532.84;5041298;28;20549;-74
2022/09/15 06:08:54;;;;;;;13.88;13.18;;;;;;;22.52;100.00;99533.78;5061624;28;20028;-75
2022/09/15 06:11:26;;;;;;;14.98;14.18;;;;;;;22.26;100.00;99528.50;5039892;28;20500;-75
2022/09/15 06:13:51;;;;;;;14.43;13.63;;;;;;;21.92;100.00;99520.19;5041548;28;20045;-75
2022/09/15 06:16:23;;;;;;;14.10;13.30;;;;;;;22.32;100.00;99511.16;5046497;28;20041;-75
2022/09/15 06:18:51;;;;;;;14.18;13.43;;;;;;;21.80;100.00;99509.66;5052536;28;20059;-74
2022/09/15 06:21:27;;;;;;;14.63;13.82;;;;;;;22.47;100.00;99506.75;5044732;28;20477;-74
2022/09/15 06:23:58;;;;;;;13.93;13.23;;;;;;;21.96;100.00;99504.22;5046806;28;20029;-74
2022/09/15 06:26:25;;;;;;;14.55;13.75;;;;;;;22.16;100.00;99506.09;5083871;28;20132;-74
2022/09/15 06:29:01;;;;;;;15.13;14.32;;;;;;;22.72;100.00;99501.22;5064991;28;20059;-73
2022/09/15 06:31:29;;;;;;;13.75;13.05;;;;;;;22.38;100.00;99516.53;5051691;28;20398;-74
2022/09/15 06:33:56;;;;;;;14.10;13.38;;;;;;;22.54;100.00;99518.88;5050080;28;20021;-75
2022/09/15 06:36:24;;;;;;;14.30;13.50;;;;;;;22.45;100.00;99517.84;5053116;28;20032;-75
2022/09/15 06:38:50;;;;;;;13.55;12.85;;;;;;;22.39;100.00;99518.97;5047565;28;20082;-74
2022/09/15 06:41:16;;;;;;;17.88;16.70;;;;;;;22.54;100.00;99521.59;5046902;28;20074;-69
2022/09/15 06:43:42;;;;;;;13.80;13.10;;;;;;;22.43;100.00;99516.53;5048462;28;20041;-72
2022/09/15 06:46:13;;;;;;;14.05;13.35;;;;;;;22.51;100.00;99524.84;5044989;28;20060;-72
2022/09/15 06:48:40;;;;;;;13.30;12.60;;;;;;;21.98;100.00;99529.09;5046165;28;20075;-72
2022/09/15 06:51:09;;;;;;;13.45;12.75;;;;;;;21.59;100.00;99509.97;5047528;28;20029;-72
2022/09/15 06:53:37;;;;;;;13.00;12.40;;;;;;;22.23;100.00;99520.91;5055666;28;20033;-72
2022/09/15 06:56:09;;;;;;;13.20;12.60;;;;;;;22.13;100.00;99522.84;5052660;28;20053;-72
2022/09/15 06:58:37;;;;;;;13.40;12.70;;;;;;;22.18;100.00;99515.56;5047165;28;20021;-73
2022/09/15 07:01:18;;;;;;;13.45;12.75;;;;;;;22.21;100.00;99514.19;5046372;28;20033;-73
2022/09/15 07:03:44;;;;;;;14.00;13.30;;;;;;;21.23;100.00;99518.88;5059417;28;20029;-71
2022/09/15 07:06:13;;;;;;;13.82;13.13;;;;;;;22.15;100.00;99505.28;5044094;28;20032;-71
2022/09/15 07:08:40;;;;;;;13.82;13.13;;;;;;;22.48;100.00;99503.00;5047058;28;20108;-71
2022/09/15 07:11:06;;;;;;;14.48;13.68;;;;;;;22.64;100.00;99515.34;5039023;28;20040;-71
2022/09/15 07:13:32;;;;;;;15.43;14.52;;;;;;;22.69;100.00;99512.59;5047992;28;20124;-71
2022/09/15 07:16:00;;;;;;;12.85;12.25;;;;;;;22.69;100.00;99495.56;5050175;28;20111;-71
2022/09/15 07:18:25;;;;;;;14.15;13.35;;;;;;;22.48;100.00;99505.69;5051225;28;20025;-70
2022/09/15 07:20:56;;;;;;;13.10;12.40;;;;;;;22.78;100.00;99505.53;5047296;28;20110;-72
2022/09/15 07:23:23;;;;;;;13.88;13.18;;;;;;;22.83;100.00;99501.97;5038297;28;20025;-72
2022/09/15 07:25:48;;;;;;;13.18;12.48;;;;;;;22.73;100.00;99500.13;5050664;28;20048;-71
2022/09/15 07:28:14;;;;;;;13.20;12.52;;;;;;;22.63;100.00;99513.72;5054040;28;20032;-71
2022/09/15 07:30:41;;;;;;;13.40;12.70;;;;;;;22.47;100.00;99512.16;5054163;28;20017;-71
2022/09/15 07:33:10;;;;;;;13.40;12.70;;;;;;;22.45;100.00;99522.44;5053408;28;20022;-71
2022/09/15 07:35:43;;;;;;;13.48;12.77;;;;;;;22.49;100.00;99523.53;5057172;28;20028;-72
2022/09/15 07:38:09;;;;;;;13.93;13.23;;;;;;;22.33;100.00;99528.19;5055228;28;20518;-73
2022/09/15 07:40:37;;;;;;;13.40;12.70;;;;;;;22.24;100.00;99527.94;5048440;28;20500;-71
2022/09/15 07:43:03;;;;;;;13.45;12.75;;;;;;;22.02;100.00;99527.44;5044711;28;20052;-71
2022/09/15 07:45:29;;;;;;;13.40;12.70;;;;;;;21.78;100.00;99533.44;5058055;28;20053;-72
2022/09/15 07:47:54;;;;;;;14.32;13.52;;;;;;;21.69;100.00;99539.66;5043992;28;20037;-72
2022/09/15 07:50:20;;;;;;;14.38;13.57;;;;;;;21.01;100.00;99536.38;5044609;28;20056;-72
2022/09/15 07:52:45;;;;;;;13.43;12.73;;;;;;;21.30;100.00;99534.81;5047475;28;20503;-71
2022/09/15 07:55:11;;;;;;;13.75;13.05;;;;;;;21.15;100.00;99541.00;5049131;28;20060;-71
2022/09/15 07:57:37;;;;;;;13.80;13.10;;;;;;;20.88;100.00;99543.09;5037628;28;20481;-70
2022/09/15 08:00:04;;;;;;;13.57;12.88;;;;;;;21.20;100.00;99530.19;5047200;28;20025;-72
2022/09/15 08:02:29;;;;;;;14.80;14.00;;;;;;;21.13;100.00;99529.63;5044836;28;20146;-73
2022/09/15 08:04:56;;;;;;;13.40;12.70;;;;;;;21.68;100.00;99530.75;5060011;28;20046;-72
2022/09/15 08:07:22;;;;;;;13.85;13.15;;;;;;;22.03;100.00;99539.84;5049205;28;20032;-73
2022/09/15 08:09:48;;;;;;;13.40;12.70;;;;;;;22.19;100.00;99546.06;5042770;28;20606;-72
2022/09/15 08:12:13;;;;;;;13.68;12.98;;;;;;;22.18;100.00;99539.03;5052616;28;20025;-72
2022/09/15 08:14:39;;;;;;;13.00;12.40;;;;;;;22.09;100.00;99552.28;5045857;28;20389;-72
2022/09/15 08:17:04;;;;;;;14.25;13.45;;;;;;;22.53;100.00;99543.50;5042778;28;20515;-73
2022/09/15 08:19:32;;;;;;;13.07;12.43;;;;;;;22.77;100.00;99538.25;5046369;28;20036;-72
2022/09/15 08:21:57;;;;;;;12.82;12.23;;;;;;;23.00;100.00;99536.78;5036679;28;20393;-75
2022/09/15 08:24:23;;;;;;;13.70;13.00;;;;;;;23.01;100.00;99533.00;5040487;28;20041;-74
2022/09/15 08:26:50;;;;;;;12.63;12.02;;;;;;;22.96;100.00;99538.44;5067045;28;20034;-73
2022/09/15 08:29:17;;;;;;;12.88;12.27;;;;;;;23.06;100.00;99550.00;5051983;28;20024;-74
2022/09/15 08:31:43;;;;;;;13.13;12.43;;;;;;;23.13;100.00;99542.34;5032675;28;20049;-74
2022/09/15 08:34:14;;;;;;;13.77;13.07;;;;;;;23.07;100.00;99519.16;5052826;28;20101;-71
2022/09/15 08:36:40;;;;;;;12.60;12.00;;;;;;;23.23;100.00;99527.97;5050893;28;20530;-71
2022/09/15 08:39:06;;;;;;;13.30;12.60;;;;;;;23.37;100.00;99528.94;5048211;28;20097;-73
2022/09/15 08:41:35;;;;;;;13.70;13.00;;;;;;;23.44;100.00;99524.00;5048159;28;20063;-69
2022/09/15 08:44:22;;;;;;;13.80;13.10;;;;;;;23.57;100.00;99521.72;5051805;28;20025;-71
2022/09/15 08:47:12;;;;;;;13.45;12.75;;;;;;;23.59;100.00;99519.53;5037780;28;20041;-70
2022/09/15 08:50:03;;;;;;;14.80;14.00;;;;;;;23.58;100.00;99523.34;5051525;28;20039;-68
2022/09/15 08:52:51;;;;;;;13.82;13.13;;;;;;;23.64;100.00;99527.63;5046478;28;20063;-67
2022/09/15 08:55:47;;;;;;;13.02;12.43;;;;;;;23.19;100.00;99532.31;5050070;28;20029;-68
2022/09/15 08:58:19;;;;;;;14.05;13.32;;;;;;;23.44;100.00;99523.19;5054606;28;20174;-69
2022/09/15 09:00:47;;;;;;;13.93;13.23;;;;;;;23.70;100.00;99521.09;5047518;28;20020;-68
2022/09/15 09:03:43;;;;;;;13.48;12.77;;;;;;;23.57;100.00;99533.34;5057944;28;20021;-67
2022/09/15 09:06:36;;;;;;;13.43;12.73;;;;;;;23.45;100.00;99538.34;5042584;28;20025;-67
2022/09/15 09:09:40;;;;;;;13.45;12.77;;;;;;;23.53;100.00;99536.94;5055391;28;20017;-67
2022/09/15 09:12:21;;;;;;;13.38;12.68;;;;;;;23.51;100.00;99545.34;5059284;28;20033;-67
2022/09/15 09:14:49;;;;;;;13.20;12.50;;;;;;;23.63;100.00;99553.91;5049182;28;20094;-67
2022/09/15 09:17:26;;;;;;;14.30;13.52;;;;;;;23.70;100.00;99537.31;5050295;28;20091;-67
2022/09/15 09:19:54;;;;;;;13.30;12.63;;;;;;;23.47;100.00;99548.88;5053695;28;20032;-67
2022/09/15 09:22:23;;;;;;;13.43;12.73;;;;;;;23.39;100.00;99542.97;5058690;28;20388;-67
2022/09/15 09:24:55;;;;;;;14.43;13.63;;;;;;;23.39;100.00;99537.56;5058743;28;20033;-67
2022/09/15 09:27:33;;;;;;;14.25;13.45;;;;;;;23.30;100.00;99536.56;5049772;28;20499;-67
2022/09/15 09:30:11;;;;;;;13.45;12.75;;;;;;;23.14;100.00;99527.75;5048430;28;20112;-67
2022/09/15 09:32:48;;;;;;;13.32;12.63;;;;;;;23.31;100.00;99531.97;5052963;28;20033;-67
2022/09/15 09:35:40;;;;;;;13.77;13.07;;;;;;;23.29;100.00;99528.75;5054373;28;20396;-68
2022/09/15 09:38:19;;;;;;;14.38;13.57;;;;;;;23.38;100.00;99524.31;5044887;28;20673;-68
2022/09/15 09:40:45;;;;;;;14.10;13.35;;;;;;;23.50;100.00;99527.44;5061529;28;20036;-69
2022/09/15 09:43:11;;;;;;;15.40;14.50;;;;;;;23.30;100.00;99523.03;5049914;28;20041;-72
2022/09/15 09:45:36;;;;;;;14.48;13.68;;;;;;;23.44;100.00;99529.41;5041502;28;20103;-71
2022/09/15 09:48:14;;;;;;;14.30;13.50;;;;;;;23.90;100.00;99520.06;5051304;28;20025;-72
2022/09/15 09:50:43;;;;;;;14.73;13.93;;;;;;;24.08;100.00;99524.75;5051436;28;20020;-70
2022/09/15 09:53:30;;;;;;;14.73;13.93;;;;;;;24.22;100.00;99536.50;5043342;28;20145;-69
2022/09/15 09:56:11;;;;;;;14.60;13.80;;;;;;;24.45;100.00;99534.91;5046372;28;20029;-69
2022/09/15 09:58:37;;;;;;;14.70;13.90;;;;;;;24.69;100.00;99526.75;5054051;28;20033;-70
2022/09/15 10:01:17;;;;;;;15.00;14.15;;;;;;;25.01;100.00;99514.34;5048418;28;20480;-71
2022/09/15 10:03:44;;;;;;;14.32;13.52;;;;;;;25.28;100.00;99521.81;5056770;28;20036;-70
2022/09/15 10:06:17;;;;;;;14.82;14.02;;;;;;;25.29;100.00;99523.44;5056050;28;20066;-71
2022/09/15 10:08:58;;;;;;;14.52;13.73;;;;;;;25.38;100.00;99510.78;5043536;28;20102;-70
2022/09/15 10:11:45;;;;;;;14.55;13.75;;;;;;;25.73;100.00;99512.09;5044145;28;20040;-69
2022/09/15 10:14:27;;;;;;;12.93;12.32;;;;;;;26.17;100.00;99510.72;5056783;28;20111;-71
2022/09/15 10:17:11;;;;;;;14.57;13.77;;;;;;;26.44;100.00;99502.59;5049206;28;20096;-70
2022/09/15 10:19:49;;;;;;;13.50;12.80;;;;;;;26.75;100.00;99506.53;5050966;28;20143;-70
2022/09/15 10:22:23;;;;;;;13.63;12.93;;;;;;;27.05;100.00;99511.31;5037709;28;20021;-71
2022/09/15 10:24:49;;;;;;;13.77;13.07;;;;;;;27.49;100.00;99506.97;5047756;28;20115;-71
2022/09/15 10:27:20;;;;;;;13.38;12.68;;;;;;;27.47;100.00;99504.56;5039969;28;20765;-72
2022/09/15 10:29:46;;;;;;;14.18;13.48;;;;;;;27.20;100.00;99489.16;5042875;28;20041;-71
2022/09/15 10:32:24;;;;;;;13.80;13.10;;;;;;;27.53;100.00;99486.94;5046863;28;20483;-71
2022/09/15 10:34:58;;;;;;;13.32;12.65;;;;;;;27.67;100.00;99495.06;5050672;28;20117;-71
2022/09/15 10:37:34;;;;;;;13.27;12.60;;;;;;;27.56;100.00;99493.69;5040892;28;20336;-71
2022/09/15 10:40:24;;;;;;;14.10;13.40;;;;;;;27.84;100.00;99490.78;5046923;28;20120;-72
2022/09/15 10:42:52;;;;;;;14.55;13.75;;;;;;;27.82;100.00;99499.28;5045246;28;20029;-71
2022/09/15 10:45:37;;;;;;;14.18;13.43;;;;;;;27.76;100.00;99501.38;5048072;28;20128;-72
2022/09/15 10:48:27;;;;;;;14.63;13.82;;;;;;;27.67;100.00;99497.78;5060338;28;20029;-72
2022/09/15 10:51:14;;;;;;;14.05;13.35;;;;;;;27.87;100.00;99498.34;5051566;28;20043;-71
2022/09/15 10:54:11;;;;;;;13.00;12.40;;;;;;;27.46;100.00;99497.47;5029736;28;20029;-69
2022/09/15 10:56:43;;;;;;;15.13;14.32;;;;;;;27.65;100.00;99489.09;5048546;28;20087;-70
2022/09/15 10:59:57;;;;;;;13.70;13.00;;;;;;;28.02;100.00;99479.66;5047589;28;20058;-71
2022/09/15 11:02:35;;;;;;;14.15;13.45;;;;;;;27.72;100.00;99470.41;5046093;28;20037;-71
2022/09/15 11:05:31;;;;;;;13.52;12.82;;;;;;;27.80;100.00;99474.28;5047261;28;20403;-70
2022/09/15 11:08:14;;;;;;;13.40;12.70;;;;;;;28.07;100.00;99481.44;5046844;28;20032;-70
2022/09/15 11:11:32;;;;;;;13.07;12.45;;;;;;;27.62;100.00;99476.09;5053914;28;20040;-69
2022/09/15 11:14:13;;;;;;;13.73;13.02;;;;;;;27.49;100.00;99474.28;5010353;28;20034;-71
2022/09/15 11:17:02;;;;;;;12.98;12.38;;;;;;;27.59;100.00;99467.75;5046114;28;20024;-71
2022/09/15 11:19:54;;;;;;;13.27;12.57;;;;;;;27.12;100.00;99484.47;5047913;28;20047;-72
2022/09/15 11:22:34;;;;;;;13.45;12.75;;;;;;;27.21;100.00;99485.31;5049636;28;20025;-71
2022/09/15 11:25:13;;;;;;;14.40;13.60;;;;;;;27.30;100.00;99490.00;5036001;28;20171;-71
2022/09/15 11:27:44;;;;;;;13.02;12.43;;;;;;;27.30;100.00;99487.28;5050856;28;20021;-71
2022/09/15 11:30:19;;;;;;;13.50;12.80;;;;;;;27.39;100.00;99490.84;5049383;28;20446;-71